Zagreb — 9AA5910 — position and weather

sailwx.info

Track history (hours):
 
Tides and Currents Weather Stations Pressure Air Temp Water Temp Dewpoint Dewpoint Depression Visibility Wind Speed Wind Dir Waves Ship Positions

Zagreb

Last reported at 2014-Oct-25 20:32 UTC. Time now 2014-Oct-25 20:40 UTC.
Position N 56°22' E 007°16'.

Length 229 m; draft 9.8 m.

Type: Cargo ship. MMSI: 238249000.

Date/timePositionNaut miles runAvg speedWind from/ knotsBaromVisibWave heightAir tempDewpointWater temp
2014-Oct-25 20:32N 56°22' E 007°16'1111.6
2014-Oct-25 19:33N 56°33' E 007°24'11611.0
2014-Oct-25 09:03N 57°50' E 010°03'612.5
2014-Oct-25 08:33N 57°50' E 010°15'1212.2
2014-Oct-25 07:33N 57°50' E 010°37'1211.7
2014-Oct-25 06:33N 57°44' E 010°56'1312.5
2014-Oct-25 05:33N 57°35' E 011°13'1212.3
2014-Oct-25 04:33N 57°26' E 011°28'1313.1
2014-Oct-25 03:32N 57°13' E 011°36'1313.2
2014-Oct-25 02:31N 57°01' E 011°44'1313.2
2014-Oct-25 01:33N 56°49' E 011°53'1211.4
2014-Oct-25 00:32N 56°38' E 011°47'  
2014-Oct-22 19:33N 54°31' E 011°28'1312.6
2014-Oct-22 18:33N 54°27' E 011°48'1212.3
2014-Oct-22 17:34N 54°27' E 012°09'5911.8
2014-Oct-22 12:33N 54°58' E 013°36'1313.0
2014-Oct-22 11:33N 55°03' E 013°58'1312.6
2014-Oct-22 10:33N 55°11' E 014°14'1313.4
2014-Oct-22 09:33N 55°22' E 014°29'1312.9
2014-Oct-22 08:33N 55°29' E 014°47'1312.8
2014-Oct-22 07:33N 55°35' E 015°07'35711.9
2014-Oct-21 01:31N 59°37' E 023°16'1313.0
2014-Oct-21 00:33N 59°40' E 023°40'1313.1
2014-Oct-20 23:33N 59°44' E 024°04'1313.2
2014-Oct-20 22:34N 59°47' E 024°30'5413.2
2014-Oct-20 18:27N 59°59' E 026°15'1112.8
2014-Oct-20 17:34N 60°02' E 026°37'1312.9
2014-Oct-20 16:32N 59°59' E 027°03'  
2014-Oct-16 13:34N 59°58' E 026°57'1312.1
2014-Oct-16 12:31N 59°59' E 026°33'4912.5
2014-Oct-16 08:34N 59°47' E 024°57'1212.4
2014-Oct-16 07:33N 59°44' E 024°33'1312.5
2014-Oct-16 06:33N 59°41' E 024°08'1212.3
2014-Oct-16 05:32N 59°37' E 023°45'  
Track history (hours):
 
Tides and Currents Weather Stations Pressure Air Temp Water Temp Dewpoint Dewpoint Depression Visibility Wind Speed Wind Dir Waves Ship Positions

Zagreb

Last reported at 2014-Oct-25 20:32 UTC. Time now 2014-Oct-25 20:40 UTC.
Position N 56°22' E 007°16'.

Length 229 m; draft 9.8 m.

Type: Cargo ship. MMSI: 238249000.

Date/timePositionNaut miles runAvg speedWind from/ knotsBaromVisibWave heightAir tempDewpointWater temp
2014-Oct-25 20:32N 56°22' E 007°16'1111.6
2014-Oct-25 19:33N 56°33' E 007°24'11611.0
2014-Oct-25 09:03N 57°50' E 010°03'612.5
2014-Oct-25 08:33N 57°50' E 010°15'1212.2
2014-Oct-25 07:33N 57°50' E 010°37'1211.7
2014-Oct-25 06:33N 57°44' E 010°56'1312.5
2014-Oct-25 05:33N 57°35' E 011°13'1212.3
2014-Oct-25 04:33N 57°26' E 011°28'1313.1
2014-Oct-25 03:32N 57°13' E 011°36'1313.2
2014-Oct-25 02:31N 57°01' E 011°44'1313.2
2014-Oct-25 01:33N 56°49' E 011°53'1211.4
2014-Oct-25 00:32N 56°38' E 011°47'  
2014-Oct-22 19:33N 54°31' E 011°28'1312.6
2014-Oct-22 18:33N 54°27' E 011°48'1212.3
2014-Oct-22 17:34N 54°27' E 012°09'5911.8
2014-Oct-22 12:33N 54°58' E 013°36'1313.0
2014-Oct-22 11:33N 55°03' E 013°58'1312.6
2014-Oct-22 10:33N 55°11' E 014°14'1313.4
2014-Oct-22 09:33N 55°22' E 014°29'1312.9
2014-Oct-22 08:33N 55°29' E 014°47'1312.8
2014-Oct-22 07:33N 55°35' E 015°07'35711.9
2014-Oct-21 01:31N 59°37' E 023°16'1313.0
2014-Oct-21 00:33N 59°40' E 023°40'1313.1
2014-Oct-20 23:33N 59°44' E 024°04'1313.2
2014-Oct-20 22:34N 59°47' E 024°30'5413.2
2014-Oct-20 18:27N 59°59' E 026°15'1112.8
2014-Oct-20 17:34N 60°02' E 026°37'1312.9
2014-Oct-20 16:32N 59°59' E 027°03'  
2014-Oct-16 13:34N 59°58' E 026°57'1312.1
2014-Oct-16 12:31N 59°59' E 026°33'4912.5
2014-Oct-16 08:34N 59°47' E 024°57'1212.4
2014-Oct-16 07:33N 59°44' E 024°33'1312.5
2014-Oct-16 06:33N 59°41' E 024°08'1212.3
2014-Oct-16 05:32N 59°37' E 023°45'  

Dump ship's entire track history